Celebrity Century — 9HJI9 — position and weather

sailwx.info

Track history (hours):
 
Tides and Currents Weather Stations Pressure Air Temp Water Temp Dewpoint Dewpoint Depression Visibility Wind Speed Wind Dir Waves Ship Positions

Celebrity Century

Last reported at 2019-Dec-12 02:00 UTC. Time now 2019-Dec-12 07:57 UTC.
Position N 17°44' W 062°49'.

Length 247 m; draft 8 m.

Type: Ship. MMSI: 249054000.

Date/timePositionNaut miles runAvg speedWind from/ knotsBaromVisibWave heightAir tempDewpointWater temp
2019-Dec-12 02:00N 17°44' W 062°49'3 6.2
2019-Dec-12 01:30N 17°46' W 062°52'7 6.7
2019-Dec-12 00:30N 17°50' W 062°57'4 6.9
2019-Dec-11 23:58N 17°52' W 063°01'8 5.4
2019-Dec-11 22:28N 17°60' W 063°05'2 0.7
2019-Dec-11 19:24N 18°01' W 063°03'4 0.5
2019-Dec-11 10:40N 17°59' W 063°07'16 7.6
2019-Dec-11 08:33N 17°55' W 063°23'11 8.2
2019-Dec-11 07:12N 17°57' W 063°34'10 8.1
2019-Dec-11 05:58N 17°60' W 063°45'24 0.9
2019-Dec-10 03:02N 17°48' W 063°23'110.5
2019-Dec-10 02:55N 17°47' W 063°22'1010.7
2019-Dec-10 02:00N 17°43' W 063°13'4411.0
2019-Dec-09 21:58N 17°02' W 062°54'1111.0
2019-Dec-09 20:59N 16°53' W 062°49'  
Track history (hours):
 
Tides and Currents Weather Stations Pressure Air Temp Water Temp Dewpoint Dewpoint Depression Visibility Wind Speed Wind Dir Waves Ship Positions

Celebrity Century

Last reported at 2019-Dec-12 02:00 UTC. Time now 2019-Dec-12 07:57 UTC.
Position N 17°44' W 062°49'.

Length 247 m; draft 8 m.

Type: Ship. MMSI: 249054000.

Date/timePositionNaut miles runAvg speedWind from/ knotsBaromVisibWave heightAir tempDewpointWater temp
2019-Dec-12 02:00N 17°44' W 062°49'3 6.2
2019-Dec-12 01:30N 17°46' W 062°52'7 6.7
2019-Dec-12 00:30N 17°50' W 062°57'4 6.9
2019-Dec-11 23:58N 17°52' W 063°01'8 5.4
2019-Dec-11 22:28N 17°60' W 063°05'2 0.7
2019-Dec-11 19:24N 18°01' W 063°03'4 0.5
2019-Dec-11 10:40N 17°59' W 063°07'16 7.6
2019-Dec-11 08:33N 17°55' W 063°23'11 8.2
2019-Dec-11 07:12N 17°57' W 063°34'10 8.1
2019-Dec-11 05:58N 17°60' W 063°45'24 0.9
2019-Dec-10 03:02N 17°48' W 063°23'110.5
2019-Dec-10 02:55N 17°47' W 063°22'1010.7
2019-Dec-10 02:00N 17°43' W 063°13'4411.0
2019-Dec-09 21:58N 17°02' W 062°54'1111.0
2019-Dec-09 20:59N 16°53' W 062°49'  

Dump ship's entire track history